Airfield :
LOGIN :

Register | Disclaimer

   EN    FR    IT 

 










Legend :    VFR   Marginal VFR   IFR   Intensive IFR   Very Intensive IFR
Visi :
Ceiling :
>= 8 km
>= 3000ft
5 to 8 km
1000 to 3000 ft
1500m to 5 km
500 to 1000 ft
800 to 1500m
200 to 500 ft
< 800m
< 200 ft
Symbols :   Thunderstorms  Fog  Heavy snow  Heavy precipitations  Wind > 20 kt
SIGMETs :     Misc.  Thunderstorms  Icing  Turbulence  Mountain Waves  Volcanic Ashes







- Airport Elevation : 479 ft
- IATA code : DOL
- Download approach charts


LFRG - Deauville

CURRENT METAR :
  • 201200Z AUTO 28009KT 9000 BKN010 BKN070 15/12 Q1013 TEMPO 35010KT 4000 SHRA BKN015CB

EXPIRED METARs :
  • 201130Z AUTO 27008KT 240V310 9000 BKN012 15/12 Q1013 TEMPO 4000 SHRA BKN015CB
  • 201100Z AUTO 27008KT 9000 BKN007 15/12 Q1013 TEMPO 4000 SHRA BKN015CB
  • 201030Z AUTO 27009KT 240V320 8000 OVC007 14/12 Q1013 TEMPO 4000 SHRA BKN015CB
  • 201000Z AUTO 27007KT 240V320 7000 OVC006 14/12 Q1013 TEMPO 4000 SHRA BKN015CB
  • 200930Z AUTO 28007KT 7000 BKN007 OVC052 14/12 Q1013 TEMPO 4000 SHRA BKN015CB

TAF TAF LFRG
Valid from the 20 at 12:00 until the 20 at 21:00 UTC


201100Z 2012/2021 30005KT 9999 OVC007
BECMG 2012/2014 BKN020
PROB40
TEMPO 2014/2018 BKN008
PROB40
TEMPO 2012/2018 4000 SHRA BKN015CB
TEMPO 2013/2017 35010KT
ATIS : +33 2 31 65 65 36
No reported NOTAMs for that airfield.



MET'MAP, your aeronautical weather chart ! - Copyright ORBIFLY December 2007 - Disclaimer

ORBIFLY MET'MAP TEAM :

Programming & Development : Alexandra Zaïnal
Concept & Development : Baudouin d'Aumeries
Co-Development & Prog : Marc-Olivier Méhu
Technical & hardware support : Manuel Goepfert

Contact : metmap@orbifly.com




SOURCES & CREDITS :

   NOAA